createdAt,value
2022-09-10T00:02:20.498Z,24.39
2022-09-10T00:07:24.402Z,24.38
2022-09-10T00:12:27.849Z,24.36
2022-09-10T00:17:31.331Z,24.35
2022-09-10T00:22:34.726Z,24.35
2022-09-10T00:27:38.587Z,24.34
2022-09-10T00:32:41.743Z,24.35
2022-09-10T00:37:45.059Z,24.36
2022-09-10T00:42:48.524Z,24.36
2022-09-10T00:47:56.708Z,24.35
2022-09-10T00:53:04.675Z,24.37
2022-09-10T00:58:12.330Z,24.36
2022-09-10T01:03:17.236Z,24.37
2022-09-10T01:08:21.058Z,24.33
2022-09-10T01:14:06.537Z,24.32
2022-09-10T01:19:34.885Z,24.32
2022-09-10T01:25:03.441Z,24.30
2022-09-10T01:30:09.446Z,24.27
2022-09-10T01:35:29.575Z,24.26
2022-09-10T01:40:34.118Z,24.23
2022-09-10T01:45:47.541Z,24.21
2022-09-10T01:51:04.273Z,24.20
2022-09-10T01:56:35.281Z,24.17
2022-09-10T02:01:50.085Z,24.14
2022-09-10T02:06:56.643Z,24.10
2022-09-10T02:12:00.282Z,24.08
2022-09-10T02:17:23.780Z,24.04
2022-09-10T02:22:29.371Z,24.03
2022-09-10T02:27:34.462Z,24.01
2022-09-10T02:32:37.753Z,24.01
2022-09-10T02:37:42.847Z,24.01
2022-09-10T02:42:47.756Z,23.99
2022-09-10T02:47:55.946Z,23.95
2022-09-10T02:53:00.484Z,23.92
2022-09-10T02:58:03.798Z,23.91
2022-09-10T03:03:08.657Z,23.88
2022-09-10T03:08:12.619Z,23.85
2022-09-10T03:13:19.946Z,23.81
2022-09-10T03:18:23.653Z,23.76
2022-09-10T03:23:26.943Z,23.77
2022-09-10T03:28:30.184Z,23.77
2022-09-10T03:33:35.137Z,23.79
2022-09-10T03:38:39.249Z,23.79
2022-09-10T03:43:42.547Z,23.80
2022-09-10T03:48:50.027Z,23.83
2022-09-10T03:53:58.913Z,23.83
2022-09-10T03:59:02.084Z,23.88
2022-09-10T04:04:05.997Z,23.91
2022-09-10T04:09:09.411Z,23.93
2022-09-10T04:14:13.489Z,23.97
2022-09-10T04:19:19.008Z,23.99
2022-09-10T04:24:24.576Z,24.05
2022-09-10T04:29:28.881Z,24.12
2022-09-10T04:34:32.415Z,24.19
2022-09-10T04:39:35.896Z,24.27
2022-09-10T04:44:40.030Z,24.37
2022-09-10T04:49:43.547Z,24.51
2022-09-10T04:54:48.221Z,24.73
2022-09-10T04:59:53.086Z,25.13
2022-09-10T05:04:58.736Z,27.10
2022-09-10T05:10:02.852Z,29.46
2022-09-10T05:15:07.136Z,28.54
2022-09-10T05:20:11.364Z,27.24
2022-09-10T05:25:23.794Z,26.25
2022-09-10T05:30:27.507Z,25.64
2022-09-10T05:35:31.067Z,25.22
2022-09-10T05:40:35.812Z,25.06
2022-09-10T05:45:40.157Z,25.03
2022-09-10T05:50:44.024Z,24.92
2022-09-10T05:55:47.541Z,24.87
2022-09-10T06:00:52.550Z,24.88
2022-09-10T06:05:56.857Z,24.90
2022-09-10T06:11:06.613Z,24.85
2022-09-10T06:16:17.902Z,25.13
2022-09-10T06:21:28.280Z,25.20
2022-09-10T06:26:33.519Z,25.13
2022-09-10T06:31:42.493Z,25.24
2022-09-10T06:36:48.432Z,25.31
2022-09-10T06:41:53.212Z,25.55
2022-09-10T06:48:18.793Z,25.61
2022-09-10T06:52:40.046Z,25.56
2022-09-10T06:57:46.482Z,25.68
2022-09-10T07:02:53.280Z,25.82
2022-09-10T07:07:58.619Z,25.96
2022-09-10T07:13:02.984Z,26.13
2022-09-10T07:18:07.275Z,26.30
2022-09-10T07:23:14.655Z,26.50
2022-09-10T07:28:18.885Z,26.75
2022-09-10T07:33:25.363Z,26.87
2022-09-10T07:38:29.150Z,27.06
2022-09-10T07:43:32.994Z,27.27
2022-09-10T07:48:37.319Z,27.65
2022-09-10T07:53:50.032Z,28.06
2022-09-10T07:58:55.979Z,28.41
2022-09-10T08:04:05.166Z,28.74
2022-09-10T08:09:11.080Z,28.96
2022-09-10T08:14:31.079Z,29.23
2022-09-10T08:19:39.936Z,29.51
2022-09-10T08:24:43.774Z,29.69
2022-09-10T08:29:47.390Z,29.93
2022-09-10T08:34:50.747Z,30.02
2022-09-10T08:39:54.531Z,29.94
2022-09-10T08:45:31.196Z,29.89
2022-09-10T08:50:54.214Z,29.76
2022-09-10T08:56:05.011Z,29.67
2022-09-10T09:01:16.040Z,29.65
2022-09-10T09:06:41.588Z,29.60
2022-09-10T09:11:49.467Z,29.55
2022-09-10T09:17:20.447Z,29.51
2022-09-10T09:22:38.147Z,29.46
2022-09-10T09:27:49.746Z,29.48
2022-09-10T09:32:59.132Z,29.45
2022-09-10T09:38:08.782Z,29.49
2022-09-10T09:43:33.355Z,29.49
2022-09-10T09:48:41.467Z,29.48
2022-09-10T09:53:48.208Z,29.46
2022-09-10T09:58:54.236Z,29.44
2022-09-10T10:04:00.818Z,29.31
2022-09-10T10:09:20.831Z,29.34
2022-09-10T10:14:32.048Z,29.28
2022-09-10T10:19:40.657Z,29.27
2022-09-10T10:24:46.022Z,29.24
2022-09-10T10:30:05.504Z,29.22
2022-09-10T10:35:33.190Z,29.21
2022-09-10T10:40:46.940Z,29.18
2022-09-10T10:46:27.670Z,29.15
2022-09-10T10:51:49.663Z,29.07
2022-09-10T10:57:12.416Z,28.98
2022-09-10T11:02:23.113Z,28.94
2022-09-10T11:07:33.968Z,28.90
2022-09-10T11:12:46.845Z,28.90
2022-09-10T11:18:15.198Z,28.86
2022-09-10T11:23:44.981Z,28.81
2022-09-10T11:29:12.798Z,28.82
2022-09-10T11:34:35.450Z,28.82
2022-09-10T11:39:51.295Z,28.85
2022-09-10T11:45:16.844Z,28.82
2022-09-10T11:50:41.566Z,28.85
2022-09-10T11:56:09.990Z,28.87
2022-09-10T12:01:28.487Z,28.83
2022-09-10T12:06:44.493Z,28.86
2022-09-10T12:11:57.697Z,28.82
2022-09-10T12:17:28.805Z,28.80
2022-09-10T12:22:36.349Z,28.79
2022-09-10T12:27:49.157Z,28.73
2022-09-10T12:32:54.337Z,28.67
2022-09-10T12:38:37.221Z,28.63
2022-09-10T12:43:40.427Z,28.59
2022-09-10T12:49:10.988Z,28.58
2022-09-10T12:54:50.909Z,28.51
2022-09-10T13:00:32.975Z,28.48
2022-09-10T13:05:39.571Z,28.47
2022-09-10T13:10:47.239Z,28.43
2022-09-10T13:15:53.807Z,28.41
2022-09-10T13:20:57.707Z,28.37
2022-09-10T13:26:29.414Z,28.39
2022-09-10T13:31:36.151Z,28.39
2022-09-10T13:36:46.398Z,28.41
2022-09-10T13:41:56.973Z,28.42
2022-09-10T13:47:10.457Z,28.38
2022-09-10T13:52:18.127Z,28.35
2022-09-10T13:57:38.760Z,28.34
2022-09-10T14:02:45.863Z,28.27
2022-09-10T14:07:51.265Z,28.20
2022-09-10T14:12:55.824Z,28.14
2022-09-10T14:18:00.203Z,28.08
2022-09-10T14:23:13.110Z,28.00
2022-09-10T14:28:16.404Z,27.98
2022-09-10T14:33:35.644Z,27.89
2022-09-10T14:38:40.298Z,27.82
2022-09-10T14:43:44.671Z,27.80
2022-09-10T14:49:00.504Z,27.77
2022-09-10T14:54:03.815Z,27.69
2022-09-10T14:59:26.360Z,27.67
2022-09-10T15:04:30.332Z,27.55
2022-09-10T15:09:34.029Z,27.43
2022-09-10T15:14:39.446Z,27.34
2022-09-10T15:19:43.037Z,27.26
2022-09-10T15:25:08.152Z,27.15
2022-09-10T15:30:10.286Z,26.97
2022-09-10T15:35:13.979Z,26.84
2022-09-10T15:40:17.977Z,26.74
2022-09-10T15:45:22.071Z,26.67
2022-09-10T15:50:27.236Z,26.56
2022-09-10T15:55:31.140Z,26.47
2022-09-10T16:00:35.149Z,26.35
2022-09-10T16:05:38.510Z,26.26
2022-09-10T16:10:42.336Z,26.17
2022-09-10T16:16:04.897Z,26.12
2022-09-10T16:21:15.207Z,26.00
2022-09-10T16:26:24.483Z,25.96
2022-09-10T16:31:29.100Z,25.88
2022-09-10T16:36:35.139Z,25.80
2022-09-10T16:41:40.271Z,25.73
2022-09-10T16:46:45.132Z,25.69
2022-09-10T16:51:48.774Z,25.64
2022-09-10T16:56:52.235Z,25.57
2022-09-10T17:01:56.064Z,25.53
2022-09-10T17:06:59.964Z,25.51
2022-09-10T17:12:03.240Z,25.47
2022-09-10T17:17:06.516Z,25.44
2022-09-10T17:22:09.914Z,25.40
2022-09-10T17:27:13.132Z,25.37
2022-09-10T17:32:16.468Z,25.33
2022-09-10T17:37:19.891Z,25.29
2022-09-10T17:42:25.201Z,25.28
2022-09-10T17:47:28.850Z,25.25
2022-09-10T17:52:32.228Z,25.23
2022-09-10T17:57:35.609Z,25.20
2022-09-10T18:02:38.988Z,25.19
2022-09-10T18:07:42.387Z,25.17
2022-09-10T18:12:46.963Z,25.16
2022-09-10T18:17:50.502Z,25.13
2022-09-10T18:22:54.236Z,25.10
2022-09-10T18:27:58.355Z,25.09
2022-09-10T18:33:01.742Z,25.07
2022-09-10T18:38:05.098Z,25.03
2022-09-10T18:43:08.862Z,25.02
2022-09-10T18:48:12.366Z,25.00
2022-09-10T18:53:15.755Z,24.98
2022-09-10T18:58:19.002Z,24.95
2022-09-10T19:03:22.276Z,24.93
2022-09-10T19:08:25.748Z,24.91
2022-09-10T19:13:34.167Z,24.88
2022-09-10T19:18:37.816Z,24.83
2022-09-10T19:23:41.164Z,24.78
2022-09-10T19:28:45.042Z,24.76
2022-09-10T19:33:48.260Z,24.77
2022-09-10T19:38:53.913Z,24.78
2022-09-10T19:43:57.337Z,24.77
2022-09-10T19:49:00.947Z,24.73
2022-09-10T19:54:05.175Z,24.71
2022-09-10T19:59:09.253Z,24.67
2022-09-10T20:04:15.040Z,24.66
2022-09-10T20:09:22.485Z,24.59
2022-09-10T20:14:29.105Z,24.62
2022-09-10T20:19:32.588Z,24.57
2022-09-10T20:24:35.896Z,24.57
2022-09-10T20:29:39.233Z,24.56
2022-09-10T20:34:43.699Z,24.55
2022-09-10T20:39:47.109Z,24.52
2022-09-10T20:44:50.663Z,24.53
2022-09-10T20:49:54.290Z,24.54
2022-09-10T20:54:57.689Z,24.52
2022-09-10T21:00:07.266Z,24.53
2022-09-10T21:05:11.220Z,24.50
2022-09-10T21:10:14.943Z,24.48
2022-09-10T21:15:18.396Z,24.46
2022-09-10T21:20:22.415Z,24.44
2022-09-10T21:25:25.903Z,24.41
2022-09-10T21:30:29.202Z,24.39
2022-09-10T21:35:32.471Z,24.38
2022-09-10T21:40:35.723Z,24.37
2022-09-10T21:45:39.253Z,24.36
2022-09-10T21:50:42.592Z,24.36
2022-09-10T21:55:46.004Z,24.35
2022-09-10T22:00:49.642Z,24.32
2022-09-10T22:05:53.197Z,24.31
2022-09-10T22:10:56.752Z,24.28
2022-09-10T22:16:00.150Z,24.23
2022-09-10T22:21:07.479Z,24.20
2022-09-10T22:26:16.528Z,24.18
2022-09-10T22:31:26.512Z,24.14
2022-09-10T22:36:37.886Z,24.10
2022-09-10T22:41:42.273Z,24.06
2022-09-10T22:46:46.143Z,24.03
2022-09-10T22:51:50.299Z,24.03
2022-09-10T22:56:56.049Z,24.02
2022-09-10T23:02:05.558Z,24.02
2022-09-10T23:07:09.399Z,24.02
2022-09-10T23:12:12.853Z,24.01
2022-09-10T23:17:20.657Z,24.00
2022-09-10T23:22:26.170Z,23.99
2022-09-10T23:27:29.431Z,23.98
2022-09-10T23:32:32.723Z,23.93
2022-09-10T23:37:37.112Z,23.85
2022-09-10T23:42:40.670Z,23.77
2022-09-10T23:47:44.696Z,23.76
2022-09-10T23:52:48.084Z,23.76
2022-09-10T23:57:51.742Z,23.77
